sensor_id;sensor_type;location;lat;lon;timestamp;P1;durP1;ratioP1;P2;durP2;ratioP2
40951;SDS011;26682;51.660;19.338;2023-06-14T00:01:34;6.47;;;5.97;;
40951;SDS011;26682;51.660;19.338;2023-06-14T00:04:16;5.88;;;5.32;;
40951;SDS011;26682;51.660;19.338;2023-06-14T00:07:00;6.00;;;5.50;;
40951;SDS011;26682;51.660;19.338;2023-06-14T00:09:42;5.30;;;4.80;;
40951;SDS011;26682;51.660;19.338;2023-06-14T00:12:25;5.43;;;5.00;;
40951;SDS011;26682;51.660;19.338;2023-06-14T00:15:07;6.53;;;5.97;;
40951;SDS011;26682;51.660;19.338;2023-06-14T00:17:51;7.55;;;6.30;;
40951;SDS011;26682;51.660;19.338;2023-06-14T00:20:33;6.75;;;6.15;;
40951;SDS011;26682;51.660;19.338;2023-06-14T00:23:16;5.80;;;5.15;;
40951;SDS011;26682;51.660;19.338;2023-06-14T00:25:59;4.97;;;4.57;;
40951;SDS011;26682;51.660;19.338;2023-06-14T00:28:42;4.57;;;3.72;;
40951;SDS011;26682;51.660;19.338;2023-06-14T00:31:24;4.45;;;4.05;;
40951;SDS011;26682;51.660;19.338;2023-06-14T00:34:08;6.53;;;4.60;;
40951;SDS011;26682;51.660;19.338;2023-06-14T00:36:51;5.47;;;4.13;;
40951;SDS011;26682;51.660;19.338;2023-06-14T00:39:33;4.60;;;3.75;;
40951;SDS011;26682;51.660;19.338;2023-06-14T00:42:22;5.90;;;4.05;;
40951;SDS011;26682;51.660;19.338;2023-06-14T00:45:09;4.57;;;4.18;;
40951;SDS011;26682;51.660;19.338;2023-06-14T00:47:52;5.95;;;4.10;;
40951;SDS011;26682;51.660;19.338;2023-06-14T00:50:37;4.80;;;4.35;;
40951;SDS011;26682;51.660;19.338;2023-06-14T00:53:19;4.88;;;4.38;;
40951;SDS011;26682;51.660;19.338;2023-06-14T00:56:05;4.68;;;4.18;;
40951;SDS011;26682;51.660;19.338;2023-06-14T00:58:48;4.60;;;4.18;;
40951;SDS011;26682;51.660;19.338;2023-06-14T01:01:33;4.88;;;4.38;;
40951;SDS011;26682;51.660;19.338;2023-06-14T01:04:15;5.25;;;4.05;;
40951;SDS011;26682;51.660;19.338;2023-06-14T01:07:12;6.60;;;4.20;;
40951;SDS011;26682;51.660;19.338;2023-06-14T01:16:28;6.32;;;4.00;;
40951;SDS011;26682;51.660;19.338;2023-06-14T01:19:13;6.30;;;3.67;;
40951;SDS011;26682;51.660;19.338;2023-06-14T01:21:57;4.65;;;3.45;;
40951;SDS011;26682;51.660;19.338;2023-06-14T01:24:43;4.13;;;3.38;;
40951;SDS011;26682;51.660;19.338;2023-06-14T01:27:26;3.85;;;3.47;;
40951;SDS011;26682;51.660;19.338;2023-06-14T01:30:14;4.10;;;3.25;;
40951;SDS011;26682;51.660;19.338;2023-06-14T01:32:58;4.07;;;3.53;;
40951;SDS011;26682;51.660;19.338;2023-06-14T01:35:46;4.15;;;3.30;;
40951;SDS011;26682;51.660;19.338;2023-06-14T01:38:31;6.18;;;3.83;;
40951;SDS011;26682;51.660;19.338;2023-06-14T01:41:14;3.70;;;3.40;;
40951;SDS011;26682;51.660;19.338;2023-06-14T01:43:58;4.53;;;3.60;;
40951;SDS011;26682;51.660;19.338;2023-06-14T01:46:42;4.18;;;3.78;;
40951;SDS011;26682;51.660;19.338;2023-06-14T01:49:25;4.82;;;4.38;;
40951;SDS011;26682;51.660;19.338;2023-06-14T01:52:08;6.25;;;4.25;;
40951;SDS011;26682;51.660;19.338;2023-06-14T01:54:51;4.78;;;3.92;;
40951;SDS011;26682;51.660;19.338;2023-06-14T01:57:34;5.13;;;3.97;;
40951;SDS011;26682;51.660;19.338;2023-06-14T02:00:16;4.78;;;4.28;;
40951;SDS011;26682;51.660;19.338;2023-06-14T02:03:00;4.63;;;3.92;;
40951;SDS011;26682;51.660;19.338;2023-06-14T02:05:43;7.78;;;4.55;;
40951;SDS011;26682;51.660;19.338;2023-06-14T02:08:25;7.15;;;4.47;;
40951;SDS011;26682;51.660;19.338;2023-06-14T02:11:08;5.03;;;4.35;;
40951;SDS011;26682;51.660;19.338;2023-06-14T02:13:50;6.38;;;4.45;;
40951;SDS011;26682;51.660;19.338;2023-06-14T02:16:33;7.18;;;4.50;;
40951;SDS011;26682;51.660;19.338;2023-06-14T02:19:18;7.63;;;4.47;;
40951;SDS011;26682;51.660;19.338;2023-06-14T02:22:02;6.13;;;5.28;;
40951;SDS011;26682;51.660;19.338;2023-06-14T02:24:44;5.47;;;4.93;;
40951;SDS011;26682;51.660;19.338;2023-06-14T02:27:27;6.97;;;5.50;;
40951;SDS011;26682;51.660;19.338;2023-06-14T02:30:09;7.30;;;5.07;;
40951;SDS011;26682;51.660;19.338;2023-06-14T02:32:52;8.93;;;5.00;;
40951;SDS011;26682;51.660;19.338;2023-06-14T02:35:35;6.22;;;5.63;;
40951;SDS011;26682;51.660;19.338;2023-06-14T02:38:19;7.18;;;5.43;;
40951;SDS011;26682;51.660;19.338;2023-06-14T02:41:03;8.73;;;5.47;;
40951;SDS011;26682;51.660;19.338;2023-06-14T02:43:45;8.50;;;5.18;;
40951;SDS011;26682;51.660;19.338;2023-06-14T02:46:28;5.25;;;4.75;;
40951;SDS011;26682;51.660;19.338;2023-06-14T02:49:11;6.90;;;5.18;;
40951;SDS011;26682;51.660;19.338;2023-06-14T02:51:53;8.68;;;5.43;;
40951;SDS011;26682;51.660;19.338;2023-06-14T02:54:36;6.30;;;5.38;;
40951;SDS011;26682;51.660;19.338;2023-06-14T02:57:18;7.20;;;5.20;;
40951;SDS011;26682;51.660;19.338;2023-06-14T03:00:02;6.10;;;5.18;;
40951;SDS011;26682;51.660;19.338;2023-06-14T03:02:48;7.45;;;5.82;;
40951;SDS011;26682;51.660;19.338;2023-06-14T03:05:32;5.93;;;5.28;;
40951;SDS011;26682;51.660;19.338;2023-06-14T03:08:15;5.93;;;5.30;;
40951;SDS011;26682;51.660;19.338;2023-06-14T03:11:05;6.07;;;5.47;;
40951;SDS011;26682;51.660;19.338;2023-06-14T03:13:50;7.93;;;5.25;;
40951;SDS011;26682;51.660;19.338;2023-06-14T03:16:33;8.45;;;5.95;;
40951;SDS011;26682;51.660;19.338;2023-06-14T03:19:16;6.80;;;5.43;;
40951;SDS011;26682;51.660;19.338;2023-06-14T03:21:58;6.75;;;6.05;;
40951;SDS011;26682;51.660;19.338;2023-06-14T03:24:44;10.95;;;6.20;;
40951;SDS011;26682;51.660;19.338;2023-06-14T03:27:28;8.88;;;6.63;;
40951;SDS011;26682;51.660;19.338;2023-06-14T03:30:12;7.05;;;5.90;;
40951;SDS011;26682;51.660;19.338;2023-06-14T03:32:58;9.02;;;6.70;;
40951;SDS011;26682;51.660;19.338;2023-06-14T03:35:44;9.00;;;6.77;;
40951;SDS011;26682;51.660;19.338;2023-06-14T03:38:26;8.27;;;6.30;;
40951;SDS011;26682;51.660;19.338;2023-06-14T03:41:09;10.45;;;7.15;;
40951;SDS011;26682;51.660;19.338;2023-06-14T03:43:52;8.00;;;6.65;;
40951;SDS011;26682;51.660;19.338;2023-06-14T03:46:35;9.80;;;8.05;;
40951;SDS011;26682;51.660;19.338;2023-06-14T03:49:18;8.88;;;6.90;;
40951;SDS011;26682;51.660;19.338;2023-06-14T03:52:01;10.48;;;7.18;;
40951;SDS011;26682;51.660;19.338;2023-06-14T03:54:45;9.25;;;6.97;;
40951;SDS011;26682;51.660;19.338;2023-06-14T03:57:33;9.32;;;7.60;;
40951;SDS011;26682;51.660;19.338;2023-06-14T04:00:16;10.55;;;7.45;;
40951;SDS011;26682;51.660;19.338;2023-06-14T04:03:00;11.43;;;8.02;;
40951;SDS011;26682;51.660;19.338;2023-06-14T04:05:43;9.07;;;7.10;;
40951;SDS011;26682;51.660;19.338;2023-06-14T04:08:26;14.02;;;7.72;;
40951;SDS011;26682;51.660;19.338;2023-06-14T04:11:12;10.90;;;7.90;;
40951;SDS011;26682;51.660;19.338;2023-06-14T04:13:56;10.18;;;7.85;;
40951;SDS011;26682;51.660;19.338;2023-06-14T04:16:40;9.52;;;7.90;;
40951;SDS011;26682;51.660;19.338;2023-06-14T04:19:23;10.15;;;8.07;;
40951;SDS011;26682;51.660;19.338;2023-06-14T04:22:05;9.35;;;7.15;;
40951;SDS011;26682;51.660;19.338;2023-06-14T04:24:50;10.90;;;7.35;;
40951;SDS011;26682;51.660;19.338;2023-06-14T04:27:46;9.88;;;7.68;;
40951;SDS011;26682;51.660;19.338;2023-06-14T04:30:29;13.07;;;7.72;;
40951;SDS011;26682;51.660;19.338;2023-06-14T04:33:13;10.05;;;7.50;;
40951;SDS011;26682;51.660;19.338;2023-06-14T04:35:58;8.30;;;7.47;;
40951;SDS011;26682;51.660;19.338;2023-06-14T04:38:45;8.13;;;7.38;;
40951;SDS011;26682;51.660;19.338;2023-06-14T04:41:28;12.70;;;7.20;;
40951;SDS011;26682;51.660;19.338;2023-06-14T04:44:13;10.05;;;7.00;;
40951;SDS011;26682;51.660;19.338;2023-06-14T04:47:02;8.35;;;7.43;;
40951;SDS011;26682;51.660;19.338;2023-06-14T04:49:44;9.55;;;7.20;;
40951;SDS011;26682;51.660;19.338;2023-06-14T04:52:28;10.38;;;7.95;;
40951;SDS011;26682;51.660;19.338;2023-06-14T04:55:11;8.95;;;7.72;;
40951;SDS011;26682;51.660;19.338;2023-06-14T04:57:56;9.52;;;7.50;;
40951;SDS011;26682;51.660;19.338;2023-06-14T05:00:40;8.45;;;6.80;;
40951;SDS011;26682;51.660;19.338;2023-06-14T05:03:24;11.77;;;6.35;;
40951;SDS011;26682;51.660;19.338;2023-06-14T05:06:08;8.25;;;7.10;;
40951;SDS011;26682;51.660;19.338;2023-06-14T05:08:51;11.02;;;7.13;;
40951;SDS011;26682;51.660;19.338;2023-06-14T05:11:34;8.05;;;6.70;;
40951;SDS011;26682;51.660;19.338;2023-06-14T05:14:17;10.55;;;7.38;;
40951;SDS011;26682;51.660;19.338;2023-06-14T05:17:01;8.75;;;6.38;;
40951;SDS011;26682;51.660;19.338;2023-06-14T05:19:44;8.23;;;6.80;;
40951;SDS011;26682;51.660;19.338;2023-06-14T05:22:27;8.80;;;6.50;;
40951;SDS011;26682;51.660;19.338;2023-06-14T05:25:10;7.85;;;6.65;;
40951;SDS011;26682;51.660;19.338;2023-06-14T05:27:52;9.38;;;6.47;;
40951;SDS011;26682;51.660;19.338;2023-06-14T05:30:34;7.75;;;6.80;;
40951;SDS011;26682;51.660;19.338;2023-06-14T05:33:17;10.68;;;6.97;;
40951;SDS011;26682;51.660;19.338;2023-06-14T05:36:00;9.80;;;7.13;;
40951;SDS011;26682;51.660;19.338;2023-06-14T05:38:42;11.40;;;5.88;;
40951;SDS011;26682;51.660;19.338;2023-06-14T05:41:25;9.38;;;6.38;;
40951;SDS011;26682;51.660;19.338;2023-06-14T05:44:10;7.40;;;6.55;;
40951;SDS011;26682;51.660;19.338;2023-06-14T05:46:53;10.02;;;6.85;;
40951;SDS011;26682;51.660;19.338;2023-06-14T05:49:35;8.80;;;6.13;;
40951;SDS011;26682;51.660;19.338;2023-06-14T05:52:18;12.63;;;6.57;;
40951;SDS011;26682;51.660;19.338;2023-06-14T05:55:01;12.02;;;7.00;;
40951;SDS011;26682;51.660;19.338;2023-06-14T05:57:44;10.10;;;6.82;;
40951;SDS011;26682;51.660;19.338;2023-06-14T06:00:26;12.60;;;6.50;;
40951;SDS011;26682;51.660;19.338;2023-06-14T06:03:10;12.18;;;6.32;;
40951;SDS011;26682;51.660;19.338;2023-06-14T06:05:53;8.40;;;6.32;;
40951;SDS011;26682;51.660;19.338;2023-06-14T06:08:35;10.93;;;6.53;;
40951;SDS011;26682;51.660;19.338;2023-06-14T06:11:18;8.70;;;6.28;;
40951;SDS011;26682;51.660;19.338;2023-06-14T06:14:00;12.18;;;6.60;;
40951;SDS011;26682;51.660;19.338;2023-06-14T06:16:43;12.00;;;6.65;;
40951;SDS011;26682;51.660;19.338;2023-06-14T06:19:26;11.57;;;6.65;;
40951;SDS011;26682;51.660;19.338;2023-06-14T06:22:08;10.45;;;6.25;;
40951;SDS011;26682;51.660;19.338;2023-06-14T06:24:51;11.88;;;6.72;;
40951;SDS011;26682;51.660;19.338;2023-06-14T06:27:33;7.82;;;5.80;;
40951;SDS011;26682;51.660;19.338;2023-06-14T06:30:18;11.15;;;5.60;;
40951;SDS011;26682;51.660;19.338;2023-06-14T06:33:01;10.65;;;6.10;;
40951;SDS011;26682;51.660;19.338;2023-06-14T06:35:45;6.32;;;5.45;;
40951;SDS011;26682;51.660;19.338;2023-06-14T06:38:27;6.20;;;5.60;;
40951;SDS011;26682;51.660;19.338;2023-06-14T06:41:10;10.88;;;5.78;;
40951;SDS011;26682;51.660;19.338;2023-06-14T06:43:53;11.30;;;5.57;;
40951;SDS011;26682;51.660;19.338;2023-06-14T06:46:43;8.90;;;5.13;;
40951;SDS011;26682;51.660;19.338;2023-06-14T06:49:25;10.00;;;5.07;;
40951;SDS011;26682;51.660;19.338;2023-06-14T06:52:08;7.07;;;4.35;;
40951;SDS011;26682;51.660;19.338;2023-06-14T06:54:51;15.00;;;5.28;;
40951;SDS011;26682;51.660;19.338;2023-06-14T06:57:37;9.05;;;5.20;;
40951;SDS011;26682;51.660;19.338;2023-06-14T07:00:19;7.55;;;4.60;;
40951;SDS011;26682;51.660;19.338;2023-06-14T07:03:03;6.32;;;4.72;;
40951;SDS011;26682;51.660;19.338;2023-06-14T07:05:46;9.07;;;4.78;;
40951;SDS011;26682;51.660;19.338;2023-06-14T07:08:36;6.20;;;4.97;;
40951;SDS011;26682;51.660;19.338;2023-06-14T07:11:20;7.22;;;5.07;;
40951;SDS011;26682;51.660;19.338;2023-06-14T07:14:03;5.85;;;5.15;;
40951;SDS011;26682;51.660;19.338;2023-06-14T07:16:45;6.65;;;5.15;;
40951;SDS011;26682;51.660;19.338;2023-06-14T07:19:29;8.38;;;5.13;;
40951;SDS011;26682;51.660;19.338;2023-06-14T07:22:12;7.20;;;5.55;;
40951;SDS011;26682;51.660;19.338;2023-06-14T07:24:55;7.65;;;4.68;;
40951;SDS011;26682;51.660;19.338;2023-06-14T07:27:38;8.70;;;4.53;;
40951;SDS011;26682;51.660;19.338;2023-06-14T07:30:21;6.55;;;4.10;;
40951;SDS011;26682;51.660;19.338;2023-06-14T07:33:07;7.68;;;4.60;;
40951;SDS011;26682;51.660;19.338;2023-06-14T07:35:50;7.05;;;4.88;;
40951;SDS011;26682;51.660;19.338;2023-06-14T07:38:34;7.35;;;4.90;;
40951;SDS011;26682;51.660;19.338;2023-06-14T07:41:18;6.30;;;4.10;;
40951;SDS011;26682;51.660;19.338;2023-06-14T07:44:01;7.07;;;4.47;;
40951;SDS011;26682;51.660;19.338;2023-06-14T07:46:44;7.93;;;4.50;;
40951;SDS011;26682;51.660;19.338;2023-06-14T07:49:27;5.88;;;4.68;;
40951;SDS011;26682;51.660;19.338;2023-06-14T07:52:10;10.38;;;4.70;;
40951;SDS011;26682;51.660;19.338;2023-06-14T07:54:55;7.80;;;4.50;;
40951;SDS011;26682;51.660;19.338;2023-06-14T07:57:38;11.18;;;4.60;;
40951;SDS011;26682;51.660;19.338;2023-06-14T08:00:21;10.07;;;4.60;;
40951;SDS011;26682;51.660;19.338;2023-06-14T08:03:03;6.07;;;4.30;;
40951;SDS011;26682;51.660;19.338;2023-06-14T08:05:46;6.63;;;4.57;;
40951;SDS011;26682;51.660;19.338;2023-06-14T08:08:28;9.50;;;5.22;;
40951;SDS011;26682;51.660;19.338;2023-06-14T08:11:12;9.15;;;4.60;;
40951;SDS011;26682;51.660;19.338;2023-06-14T08:13:54;7.13;;;4.63;;
40951;SDS011;26682;51.660;19.338;2023-06-14T08:16:37;5.97;;;4.45;;
40951;SDS011;26682;51.660;19.338;2023-06-14T08:19:19;7.60;;;4.22;;
40951;SDS011;26682;51.660;19.338;2023-06-14T08:22:02;5.63;;;4.43;;
40951;SDS011;26682;51.660;19.338;2023-06-14T08:24:45;8.93;;;4.32;;
40951;SDS011;26682;51.660;19.338;2023-06-14T08:27:28;6.18;;;4.38;;
40951;SDS011;26682;51.660;19.338;2023-06-14T08:30:12;8.02;;;4.55;;
40951;SDS011;26682;51.660;19.338;2023-06-14T08:32:55;10.57;;;4.22;;
40951;SDS011;26682;51.660;19.338;2023-06-14T08:35:57;6.18;;;4.43;;
40951;SDS011;26682;51.660;19.338;2023-06-14T08:38:39;7.07;;;4.50;;
40951;SDS011;26682;51.660;19.338;2023-06-14T08:41:22;8.07;;;5.10;;
40951;SDS011;26682;51.660;19.338;2023-06-14T08:44:06;6.25;;;4.75;;
40951;SDS011;26682;51.660;19.338;2023-06-14T08:46:49;5.82;;;4.60;;
40951;SDS011;26682;51.660;19.338;2023-06-14T08:49:35;8.68;;;4.80;;
40951;SDS011;26682;51.660;19.338;2023-06-14T08:52:20;6.05;;;4.70;;
40951;SDS011;26682;51.660;19.338;2023-06-14T08:55:04;8.02;;;4.93;;
40951;SDS011;26682;51.660;19.338;2023-06-14T08:57:47;7.22;;;5.05;;
40951;SDS011;26682;51.660;19.338;2023-06-14T09:00:31;7.28;;;5.22;;
40951;SDS011;26682;51.660;19.338;2023-06-14T09:03:18;8.00;;;5.30;;
40951;SDS011;26682;51.660;19.338;2023-06-14T09:06:02;7.70;;;4.82;;
40951;SDS011;26682;51.660;19.338;2023-06-14T09:08:46;7.03;;;5.30;;
40951;SDS011;26682;51.660;19.338;2023-06-14T09:11:31;7.88;;;5.45;;
40951;SDS011;26682;51.660;19.338;2023-06-14T09:14:14;9.02;;;5.53;;
40951;SDS011;26682;51.660;19.338;2023-06-14T09:16:57;8.65;;;5.60;;
40951;SDS011;26682;51.660;19.338;2023-06-14T09:19:40;6.60;;;4.70;;
40951;SDS011;26682;51.660;19.338;2023-06-14T09:22:23;12.45;;;5.45;;
40951;SDS011;26682;51.660;19.338;2023-06-14T09:25:06;9.13;;;4.90;;
40951;SDS011;26682;51.660;19.338;2023-06-14T09:27:50;8.35;;;5.30;;
40951;SDS011;26682;51.660;19.338;2023-06-14T09:30:33;7.57;;;5.00;;
40951;SDS011;26682;51.660;19.338;2023-06-14T09:33:17;7.72;;;4.97;;
40951;SDS011;26682;51.660;19.338;2023-06-14T09:36:00;7.53;;;5.07;;
40951;SDS011;26682;51.660;19.338;2023-06-14T09:38:51;7.35;;;5.22;;
40951;SDS011;26682;51.660;19.338;2023-06-14T09:41:43;9.30;;;5.63;;
40951;SDS011;26682;51.660;19.338;2023-06-14T09:44:25;10.52;;;5.60;;
40951;SDS011;26682;51.660;19.338;2023-06-14T09:47:12;8.40;;;5.43;;
40951;SDS011;26682;51.660;19.338;2023-06-14T09:49:55;6.20;;;5.47;;
40951;SDS011;26682;51.660;19.338;2023-06-14T09:52:38;6.20;;;5.53;;
40951;SDS011;26682;51.660;19.338;2023-06-14T09:55:21;10.65;;;5.75;;
40951;SDS011;26682;51.660;19.338;2023-06-14T09:58:05;7.30;;;5.07;;
40951;SDS011;26682;51.660;19.338;2023-06-14T10:00:50;11.43;;;5.57;;
40951;SDS011;26682;51.660;19.338;2023-06-14T10:03:36;10.68;;;5.20;;
40951;SDS011;26682;51.660;19.338;2023-06-14T10:06:44;10.20;;;5.20;;
40951;SDS011;26682;51.660;19.338;2023-06-14T10:09:28;7.55;;;5.20;;
40951;SDS011;26682;51.660;19.338;2023-06-14T10:12:14;6.82;;;5.63;;
40951;SDS011;26682;51.660;19.338;2023-06-14T10:15:03;5.78;;;5.22;;
40951;SDS011;26682;51.660;19.338;2023-06-14T10:17:51;6.68;;;5.45;;
40951;SDS011;26682;51.660;19.338;2023-06-14T10:20:41;7.30;;;5.60;;
40951;SDS011;26682;51.660;19.338;2023-06-14T10:23:33;12.82;;;6.13;;
40951;SDS011;26682;51.660;19.338;2023-06-14T10:26:20;11.32;;;5.55;;
40951;SDS011;26682;51.660;19.338;2023-06-14T10:29:07;10.85;;;5.40;;
40951;SDS011;26682;51.660;19.338;2023-06-14T10:31:55;15.27;;;5.53;;
40951;SDS011;26682;51.660;19.338;2023-06-14T10:34:39;10.02;;;5.88;;
40951;SDS011;26682;51.660;19.338;2023-06-14T10:37:22;6.00;;;5.03;;
40951;SDS011;26682;51.660;19.338;2023-06-14T10:40:06;10.77;;;5.47;;
40951;SDS011;26682;51.660;19.338;2023-06-14T10:42:51;6.78;;;5.65;;
40951;SDS011;26682;51.660;19.338;2023-06-14T10:45:34;9.52;;;5.78;;
40951;SDS011;26682;51.660;19.338;2023-06-14T10:48:29;11.70;;;6.95;;
40951;SDS011;26682;51.660;19.338;2023-06-14T10:51:19;8.05;;;5.57;;
40951;SDS011;26682;51.660;19.338;2023-06-14T10:54:02;7.85;;;5.40;;
40951;SDS011;26682;51.660;19.338;2023-06-14T10:56:48;9.25;;;4.93;;
40951;SDS011;26682;51.660;19.338;2023-06-14T10:59:32;7.50;;;5.32;;
40951;SDS011;26682;51.660;19.338;2023-06-14T11:02:39;9.98;;;5.85;;
40951;SDS011;26682;51.660;19.338;2023-06-14T11:11:33;7.22;;;5.45;;
40951;SDS011;26682;51.660;19.338;2023-06-14T11:14:18;14.63;;;5.55;;
40951;SDS011;26682;51.660;19.338;2023-06-14T11:17:02;14.50;;;5.72;;
40951;SDS011;26682;51.660;19.338;2023-06-14T11:19:45;13.88;;;5.43;;
40951;SDS011;26682;51.660;19.338;2023-06-14T11:22:27;7.38;;;4.68;;
40951;SDS011;26682;51.660;19.338;2023-06-14T11:25:11;8.57;;;5.00;;
40951;SDS011;26682;51.660;19.338;2023-06-14T11:27:54;9.15;;;5.22;;
40951;SDS011;26682;51.660;19.338;2023-06-14T11:30:38;12.27;;;5.55;;
40951;SDS011;26682;51.660;19.338;2023-06-14T11:33:20;9.60;;;6.15;;
40951;SDS011;26682;51.660;19.338;2023-06-14T11:36:05;7.43;;;5.03;;
40951;SDS011;26682;51.660;19.338;2023-06-14T11:38:51;5.60;;;5.03;;
40951;SDS011;26682;51.660;19.338;2023-06-14T11:41:45;7.70;;;5.13;;
40951;SDS011;26682;51.660;19.338;2023-06-14T11:44:28;6.88;;;5.75;;
40951;SDS011;26682;51.660;19.338;2023-06-14T11:47:11;7.40;;;5.65;;
40951;SDS011;26682;51.660;19.338;2023-06-14T11:49:54;7.13;;;6.18;;
40951;SDS011;26682;51.660;19.338;2023-06-14T11:52:36;7.40;;;5.80;;
40951;SDS011;26682;51.660;19.338;2023-06-14T11:55:20;10.35;;;6.07;;
40951;SDS011;26682;51.660;19.338;2023-06-14T11:58:03;8.25;;;6.68;;
40951;SDS011;26682;51.660;19.338;2023-06-14T12:00:48;9.88;;;6.25;;
40951;SDS011;26682;51.660;19.338;2023-06-14T12:03:31;6.70;;;6.10;;
40951;SDS011;26682;51.660;19.338;2023-06-14T12:06:15;11.02;;;6.50;;
40951;SDS011;26682;51.660;19.338;2023-06-14T12:08:57;9.23;;;6.78;;
40951;SDS011;26682;51.660;19.338;2023-06-14T12:11:43;6.78;;;6.03;;
40951;SDS011;26682;51.660;19.338;2023-06-14T12:14:30;12.68;;;5.82;;
40951;SDS011;26682;51.660;19.338;2023-06-14T12:17:13;6.35;;;5.07;;
40951;SDS011;26682;51.660;19.338;2023-06-14T12:22:52;9.65;;;6.60;;
40951;SDS011;26682;51.660;19.338;2023-06-14T12:25:36;7.72;;;6.25;;
40951;SDS011;26682;51.660;19.338;2023-06-14T12:28:21;7.22;;;6.00;;
40951;SDS011;26682;51.660;19.338;2023-06-14T12:31:03;7.75;;;6.00;;
40951;SDS011;26682;51.660;19.338;2023-06-14T12:33:46;10.43;;;6.40;;
40951;SDS011;26682;51.660;19.338;2023-06-14T12:36:31;9.60;;;6.43;;
40951;SDS011;26682;51.660;19.338;2023-06-14T12:39:14;8.63;;;5.80;;
40951;SDS011;26682;51.660;19.338;2023-06-14T12:41:57;7.80;;;6.85;;
40951;SDS011;26682;51.660;19.338;2023-06-14T12:44:40;15.32;;;6.30;;
40951;SDS011;26682;51.660;19.338;2023-06-14T12:47:22;7.35;;;6.50;;
40951;SDS011;26682;51.660;19.338;2023-06-14T12:50:05;11.70;;;6.32;;
40951;SDS011;26682;51.660;19.338;2023-06-14T12:52:48;10.98;;;6.85;;
40951;SDS011;26682;51.660;19.338;2023-06-14T12:55:32;8.07;;;6.28;;
40951;SDS011;26682;51.660;19.338;2023-06-14T12:58:14;9.30;;;6.75;;
40951;SDS011;26682;51.660;19.338;2023-06-14T13:00:59;13.75;;;6.90;;
40951;SDS011;26682;51.660;19.338;2023-06-14T13:03:41;9.23;;;6.82;;
40951;SDS011;26682;51.660;19.338;2023-06-14T13:06:24;7.43;;;6.15;;
40951;SDS011;26682;51.660;19.338;2023-06-14T13:09:07;7.53;;;6.68;;
40951;SDS011;26682;51.660;19.338;2023-06-14T13:11:50;8.02;;;7.20;;
40951;SDS011;26682;51.660;19.338;2023-06-14T13:14:32;10.00;;;7.55;;
40951;SDS011;26682;51.660;19.338;2023-06-14T13:17:15;7.20;;;6.50;;
40951;SDS011;26682;51.660;19.338;2023-06-14T13:19:58;10.45;;;6.95;;
40951;SDS011;26682;51.660;19.338;2023-06-14T13:22:41;7.20;;;6.50;;
40951;SDS011;26682;51.660;19.338;2023-06-14T13:25:23;9.90;;;6.82;;
40951;SDS011;26682;51.660;19.338;2023-06-14T13:28:07;9.50;;;6.90;;
40951;SDS011;26682;51.660;19.338;2023-06-14T13:30:49;9.10;;;6.32;;
40951;SDS011;26682;51.660;19.338;2023-06-14T13:33:33;7.63;;;6.70;;
40951;SDS011;26682;51.660;19.338;2023-06-14T13:36:15;10.77;;;6.72;;
40951;SDS011;26682;51.660;19.338;2023-06-14T13:39:00;8.52;;;6.53;;
40951;SDS011;26682;51.660;19.338;2023-06-14T13:41:43;3.53;;;2.45;;
40951;SDS011;26682;51.660;19.338;2023-06-14T13:44:25;2.63;;;2.42;;
40951;SDS011;26682;51.660;19.338;2023-06-14T13:47:08;3.33;;;2.78;;
40951;SDS011;26682;51.660;19.338;2023-06-14T13:49:51;4.90;;;3.65;;
40951;SDS011;26682;51.660;19.338;2023-06-14T13:52:34;5.80;;;4.10;;
40951;SDS011;26682;51.660;19.338;2023-06-14T13:55:17;5.13;;;4.07;;
40951;SDS011;26682;51.660;19.338;2023-06-14T13:58:00;10.57;;;4.22;;
40951;SDS011;26682;51.660;19.338;2023-06-14T14:00:43;6.63;;;4.60;;
40951;SDS011;26682;51.660;19.338;2023-06-14T14:03:50;7.05;;;4.88;;
40951;SDS011;26682;51.660;19.338;2023-06-14T14:06:34;6.43;;;4.75;;
40951;SDS011;26682;51.660;19.338;2023-06-14T14:09:17;4.82;;;4.38;;
40951;SDS011;26682;51.660;19.338;2023-06-14T14:12:00;7.05;;;5.05;;
40951;SDS011;26682;51.660;19.338;2023-06-14T14:14:46;10.00;;;5.53;;
40951;SDS011;26682;51.660;19.338;2023-06-14T14:17:29;7.05;;;6.22;;
40951;SDS011;26682;51.660;19.338;2023-06-14T14:20:12;6.45;;;5.43;;
40951;SDS011;26682;51.660;19.338;2023-06-14T14:22:58;9.15;;;5.55;;
40951;SDS011;26682;51.660;19.338;2023-06-14T14:25:41;8.73;;;5.60;;
40951;SDS011;26682;51.660;19.338;2023-06-14T14:28:24;7.07;;;5.57;;
40951;SDS011;26682;51.660;19.338;2023-06-14T14:31:07;7.80;;;5.97;;
40951;SDS011;26682;51.660;19.338;2023-06-14T14:33:50;8.45;;;5.72;;
40951;SDS011;26682;51.660;19.338;2023-06-14T14:36:32;9.55;;;6.38;;
40951;SDS011;26682;51.660;19.338;2023-06-14T14:39:20;16.42;;;7.07;;
40951;SDS011;26682;51.660;19.338;2023-06-14T14:42:02;9.80;;;7.55;;
40951;SDS011;26682;51.660;19.338;2023-06-14T14:44:45;10.57;;;7.93;;
40951;SDS011;26682;51.660;19.338;2023-06-14T14:47:27;11.90;;;8.27;;
40951;SDS011;26682;51.660;19.338;2023-06-14T14:50:10;12.65;;;8.32;;
40951;SDS011;26682;51.660;19.338;2023-06-14T14:52:53;11.60;;;8.93;;
40951;SDS011;26682;51.660;19.338;2023-06-14T14:55:36;14.63;;;9.60;;
40951;SDS011;26682;51.660;19.338;2023-06-14T14:58:21;11.85;;;10.25;;
40951;SDS011;26682;51.660;19.338;2023-06-14T15:01:05;19.10;;;9.98;;
40951;SDS011;26682;51.660;19.338;2023-06-14T15:03:47;10.68;;;8.60;;
40951;SDS011;26682;51.660;19.338;2023-06-14T15:06:41;15.52;;;9.82;;
40951;SDS011;26682;51.660;19.338;2023-06-14T15:09:23;10.48;;;9.38;;
40951;SDS011;26682;51.660;19.338;2023-06-14T15:12:06;11.32;;;8.80;;
40951;SDS011;26682;51.660;19.338;2023-06-14T15:14:52;10.73;;;9.35;;
40951;SDS011;26682;51.660;19.338;2023-06-14T15:17:35;11.85;;;7.82;;
40951;SDS011;26682;51.660;19.338;2023-06-14T15:20:18;10.02;;;8.18;;
40951;SDS011;26682;51.660;19.338;2023-06-14T15:23:00;10.70;;;7.32;;
40951;SDS011;26682;51.660;19.338;2023-06-14T15:25:43;10.20;;;8.35;;
40951;SDS011;26682;51.660;19.338;2023-06-14T15:28:25;10.38;;;8.25;;
40951;SDS011;26682;51.660;19.338;2023-06-14T15:31:10;9.30;;;8.07;;
40951;SDS011;26682;51.660;19.338;2023-06-14T15:33:53;12.50;;;9.25;;
40951;SDS011;26682;51.660;19.338;2023-06-14T15:36:35;12.95;;;8.05;;
40951;SDS011;26682;51.660;19.338;2023-06-14T15:39:18;9.65;;;8.63;;
40951;SDS011;26682;51.660;19.338;2023-06-14T15:42:01;11.02;;;9.15;;
40951;SDS011;26682;51.660;19.338;2023-06-14T15:44:44;10.13;;;8.80;;
40951;SDS011;26682;51.660;19.338;2023-06-14T15:47:28;14.52;;;9.13;;
40951;SDS011;26682;51.660;19.338;2023-06-14T15:50:11;11.18;;;7.40;;
40951;SDS011;26682;51.660;19.338;2023-06-14T15:52:54;10.13;;;7.97;;
40951;SDS011;26682;51.660;19.338;2023-06-14T15:55:36;10.07;;;7.43;;
40951;SDS011;26682;51.660;19.338;2023-06-14T15:58:19;9.70;;;7.72;;
40951;SDS011;26682;51.660;19.338;2023-06-14T16:01:02;10.35;;;8.32;;
40951;SDS011;26682;51.660;19.338;2023-06-14T16:03:44;10.68;;;8.43;;
40951;SDS011;26682;51.660;19.338;2023-06-14T16:06:27;11.57;;;9.93;;
40951;SDS011;26682;51.660;19.338;2023-06-14T16:09:09;11.73;;;10.52;;
40951;SDS011;26682;51.660;19.338;2023-06-14T16:11:52;13.45;;;10.23;;
40951;SDS011;26682;51.660;19.338;2023-06-14T16:14:36;14.10;;;10.82;;
40951;SDS011;26682;51.660;19.338;2023-06-14T16:17:19;14.75;;;11.73;;
40951;SDS011;26682;51.660;19.338;2023-06-14T16:20:01;13.10;;;11.80;;
40951;SDS011;26682;51.660;19.338;2023-06-14T16:22:44;17.25;;;12.30;;
40951;SDS011;26682;51.660;19.338;2023-06-14T16:25:26;16.27;;;12.32;;